createdAt,value
2022-12-20T00:01:08.537Z,97.92
2022-12-20T00:06:13.596Z,97.96
2022-12-20T00:11:15.787Z,97.62
2022-12-20T00:16:19.675Z,97.40
2022-12-20T00:21:23.748Z,97.12
2022-12-20T00:26:30.385Z,97.69
2022-12-20T00:31:33.155Z,97.54
2022-12-20T00:36:36.799Z,97.22
2022-12-20T00:41:38.614Z,97.29
2022-12-20T00:46:40.784Z,96.70
2022-12-20T00:51:44.158Z,96.51
2022-12-20T00:56:46.317Z,96.45
2022-12-20T01:01:48.646Z,96.68
2022-12-20T01:06:52.244Z,96.99
2022-12-20T01:11:54.444Z,96.83
2022-12-20T01:16:56.668Z,97.22
2022-12-20T01:22:00.194Z,97.38
2022-12-20T01:27:02.318Z,97.29
2022-12-20T01:32:04.436Z,97.41
2022-12-20T01:37:07.982Z,97.15
2022-12-20T01:42:13.753Z,97.33
2022-12-20T01:47:15.968Z,97.27
2022-12-20T01:52:25.940Z,97.66
2022-12-20T01:57:32.994Z,98.05
2022-12-20T02:02:35.942Z,97.71
2022-12-20T02:07:39.869Z,97.27
2022-12-20T02:12:43.684Z,97.07
2022-12-20T02:17:52.965Z,97.72
2022-12-20T02:23:17.196Z,97.65
2022-12-20T02:28:48.255Z,96.99
2022-12-20T02:33:55.986Z,96.60
2022-12-20T02:38:58.380Z,95.95
2022-12-20T02:44:05.196Z,96.33
2022-12-20T02:49:14.320Z,95.94
2022-12-20T02:54:17.638Z,95.23
2022-12-20T02:59:24.531Z,95.40
2022-12-20T03:04:31.393Z,94.14
2022-12-20T03:09:36.016Z,94.41
2022-12-20T03:14:38.220Z,94.09
2022-12-20T03:19:41.550Z,93.20
2022-12-20T03:24:43.683Z,92.81
2022-12-20T03:29:46.132Z,92.77
2022-12-20T03:34:49.639Z,93.05
2022-12-20T03:39:51.735Z,92.69
2022-12-20T03:44:54.213Z,92.89
2022-12-20T03:49:57.880Z,92.48
2022-12-20T03:54:59.658Z,92.94
2022-12-20T04:00:01.828Z,92.55
2022-12-20T04:05:06.422Z,92.39
2022-12-20T04:10:09.655Z,92.57
2022-12-20T04:15:11.867Z,92.46
2022-12-20T04:20:16.704Z,92.42
2022-12-20T04:25:21.285Z,92.51
2022-12-20T04:30:23.343Z,93.19
2022-12-20T04:35:26.783Z,93.38
2022-12-20T04:40:28.458Z,94.13
2022-12-20T04:45:30.563Z,94.11
2022-12-20T04:50:34.188Z,94.16
2022-12-20T04:55:37.576Z,93.86
2022-12-20T05:00:39.947Z,93.80
2022-12-20T05:05:43.523Z,93.64
2022-12-20T05:10:46.277Z,93.71
2022-12-20T05:15:51.549Z,93.45
2022-12-20T05:20:57.153Z,92.70
2022-12-20T05:25:59.383Z,92.57
2022-12-20T05:31:01.863Z,92.11
2022-12-20T05:36:05.742Z,91.90
2022-12-20T05:41:07.980Z,91.99
2022-12-20T05:46:10.516Z,92.01
2022-12-20T05:51:14.023Z,92.44
2022-12-20T05:56:16.226Z,91.69
2022-12-20T06:01:18.317Z,92.12
2022-12-20T06:06:21.941Z,92.25
2022-12-20T06:11:29.639Z,92.66
2022-12-20T06:16:32.514Z,92.76
2022-12-20T06:21:36.260Z,93.48
2022-12-20T06:26:38.360Z,93.50
2022-12-20T06:31:40.937Z,93.35
2022-12-20T06:36:44.615Z,93.50
2022-12-20T06:41:46.791Z,94.04
2022-12-20T06:46:49.404Z,94.08
2022-12-20T06:51:52.485Z,94.54
2022-12-20T06:56:54.571Z,94.33
2022-12-20T07:01:56.838Z,94.69
2022-12-20T07:07:00.375Z,94.81
2022-12-20T07:12:02.361Z,94.52
2022-12-20T07:17:05.466Z,95.83
2022-12-20T07:22:11.941Z,96.71
2022-12-20T07:27:13.645Z,97.11
2022-12-20T07:32:15.659Z,97.81
2022-12-20T07:37:19.091Z,98.99
2022-12-20T07:42:20.837Z,99.45
2022-12-20T07:47:22.838Z,100.00
2022-12-20T07:52:29.247Z,100.00
2022-12-20T07:57:36.093Z,100.00
2022-12-20T08:02:42.889Z,100.00
2022-12-20T08:07:47.037Z,100.00
2022-12-20T08:12:50.680Z,100.00
2022-12-20T08:17:52.921Z,100.00
2022-12-20T08:22:56.057Z,100.00
2022-12-20T08:27:58.365Z,100.00
2022-12-20T08:33:00.378Z,100.00
2022-12-20T08:38:03.571Z,100.00
2022-12-20T08:43:10.133Z,100.00
2022-12-20T08:48:12.259Z,100.00
2022-12-20T08:53:15.532Z,100.00
2022-12-20T08:58:17.535Z,100.00
2022-12-20T09:03:19.445Z,100.00
2022-12-20T09:08:22.673Z,100.00
2022-12-20T09:13:24.764Z,100.00
2022-12-20T09:18:26.442Z,100.00
2022-12-20T09:23:29.978Z,100.00
2022-12-20T09:28:32.804Z,100.00
2022-12-20T09:33:35.280Z,100.00
2022-12-20T09:38:38.771Z,100.00
2022-12-20T09:43:41.119Z,99.93
2022-12-20T09:48:43.964Z,99.11
2022-12-20T09:54:01.059Z,96.14
2022-12-20T09:59:05.846Z,95.69
2022-12-20T10:04:19.485Z,96.66
2022-12-20T10:09:40.713Z,96.67
2022-12-20T10:15:03.181Z,96.37
2022-12-20T10:20:18.759Z,95.70
2022-12-20T10:25:23.594Z,94.53
2022-12-20T10:30:27.780Z,93.84
2022-12-20T10:35:34.006Z,92.82
2022-12-20T10:41:19.414Z,91.96
2022-12-20T10:46:04.326Z,91.52
2022-12-20T10:51:16.584Z,90.70
2022-12-20T10:56:22.629Z,91.06
2022-12-20T11:01:28.873Z,91.06
2022-12-20T11:06:42.026Z,92.00
2022-12-20T11:11:58.014Z,90.74
2022-12-20T11:17:05.104Z,90.36
2022-12-20T11:22:17.877Z,90.76
2022-12-20T11:27:35.830Z,89.51
2022-12-20T11:32:55.266Z,89.37
2022-12-20T11:38:09.673Z,89.65
2022-12-20T11:43:43.418Z,89.65
2022-12-20T11:49:14.780Z,88.68
2022-12-20T11:54:23.332Z,87.79
2022-12-20T11:59:33.735Z,86.63
2022-12-20T12:04:40.003Z,86.29
2022-12-20T12:09:51.243Z,87.78
2022-12-20T12:15:01.640Z,88.26
2022-12-20T12:20:22.429Z,88.58
2022-12-20T12:25:24.568Z,88.75
2022-12-20T12:30:36.405Z,88.65
2022-12-20T12:36:04.316Z,90.22
2022-12-20T12:41:37.857Z,90.00
2022-12-20T12:46:41.318Z,89.92
2022-12-20T12:51:50.429Z,89.99
2022-12-20T12:56:52.983Z,89.36
2022-12-20T13:02:24.965Z,89.52
2022-12-20T13:07:40.230Z,89.14
2022-12-20T13:12:58.292Z,89.36
2022-12-20T13:18:17.198Z,89.14
2022-12-20T13:23:20.417Z,88.88
2022-12-20T13:28:44.319Z,88.93
2022-12-20T13:33:49.019Z,89.07
2022-12-20T13:38:59.366Z,88.91
2022-12-20T13:44:09.757Z,88.71
2022-12-20T13:49:21.671Z,88.47
2022-12-20T13:54:27.326Z,88.70
2022-12-20T13:59:32.238Z,88.79
2022-12-20T14:04:43.486Z,88.76
2022-12-20T14:09:46.920Z,88.86
2022-12-20T14:14:50.462Z,88.77
2022-12-20T14:20:15.159Z,88.74
2022-12-20T14:25:23.215Z,88.61
2022-12-20T14:30:31.455Z,88.72
2022-12-20T14:35:34.818Z,88.89
2022-12-20T14:40:41.857Z,88.82
2022-12-20T14:45:43.762Z,88.54
2022-12-20T14:50:53.628Z,88.35
2022-12-20T14:55:56.085Z,88.30
2022-12-20T15:01:00.434Z,88.47
2022-12-20T15:06:04.036Z,88.00
2022-12-20T15:11:15.521Z,88.13
2022-12-20T15:16:20.451Z,88.46
2022-12-20T15:21:29.588Z,88.89
2022-12-20T15:26:31.673Z,89.28
2022-12-20T15:31:36.074Z,89.48
2022-12-20T15:36:39.752Z,89.40
2022-12-20T15:41:44.690Z,89.51
2022-12-20T15:46:46.641Z,89.20
2022-12-20T15:51:51.729Z,89.26
2022-12-20T15:56:54.376Z,89.18
2022-12-20T16:01:56.378Z,89.68
2022-12-20T16:06:59.660Z,89.75
2022-12-20T16:12:01.803Z,89.50
2022-12-20T16:17:03.838Z,89.78
2022-12-20T16:22:15.100Z,89.79
2022-12-20T16:27:17.164Z,89.98
2022-12-20T16:32:21.099Z,89.53
2022-12-20T16:37:24.182Z,89.83
2022-12-20T16:42:25.961Z,89.52
2022-12-20T16:47:27.667Z,89.04
2022-12-20T16:52:31.224Z,88.79
2022-12-20T16:57:33.524Z,87.84
2022-12-20T17:02:35.591Z,87.75
2022-12-20T17:07:41.569Z,87.45
2022-12-20T17:12:44.585Z,87.22
2022-12-20T17:17:48.460Z,87.25
2022-12-20T17:28:15.092Z,86.75
2022-12-20T17:33:17.212Z,86.65
2022-12-20T17:38:20.262Z,86.57
2022-12-20T17:43:22.339Z,87.03
2022-12-20T17:48:30.407Z,86.82
2022-12-20T17:53:35.974Z,86.64
2022-12-20T17:58:37.931Z,87.08
2022-12-20T18:04:02.991Z,86.03
2022-12-20T18:09:04.785Z,86.30
2022-12-20T18:14:07.081Z,86.20
2022-12-20T18:19:15.792Z,86.17
2022-12-20T18:24:19.085Z,86.25
2022-12-20T18:29:21.035Z,86.51
2022-12-20T18:34:22.916Z,86.93
2022-12-20T18:39:26.365Z,86.78
2022-12-20T18:44:28.319Z,86.92
2022-12-20T18:49:30.963Z,87.66
2022-12-20T18:54:34.150Z,87.08
2022-12-20T18:59:37.812Z,88.15
2022-12-20T19:04:40.351Z,88.97
2022-12-20T19:09:43.871Z,89.84
2022-12-20T19:14:46.617Z,91.16
2022-12-20T19:19:48.797Z,92.26
2022-12-20T19:24:52.708Z,93.39
2022-12-20T19:29:54.712Z,94.70
2022-12-20T19:34:56.483Z,95.00
2022-12-20T19:39:59.975Z,95.59
2022-12-20T19:45:02.101Z,96.06
2022-12-20T19:50:05.481Z,96.22
2022-12-20T19:55:09.263Z,96.79
2022-12-20T20:00:12.438Z,96.53
2022-12-20T20:05:15.543Z,96.02
2022-12-20T20:10:19.475Z,95.25
2022-12-20T20:15:21.683Z,94.88
2022-12-20T20:20:23.915Z,94.77
2022-12-20T20:25:27.387Z,94.84
2022-12-20T20:30:29.442Z,94.39
2022-12-20T20:35:31.541Z,95.80
2022-12-20T20:40:34.853Z,96.88
2022-12-20T20:45:36.704Z,97.30
2022-12-20T20:50:38.843Z,97.34
2022-12-20T20:55:41.916Z,96.93
2022-12-20T21:00:44.099Z,96.66
2022-12-20T21:06:34.556Z,96.71
2022-12-20T21:11:09.816Z,95.51
2022-12-20T21:16:13.763Z,95.64
2022-12-20T21:21:16.039Z,95.83
2022-12-20T21:26:20.707Z,96.28
2022-12-20T21:31:23.045Z,96.53
2022-12-20T21:36:25.925Z,95.78
2022-12-20T21:41:29.501Z,95.60
2022-12-20T21:46:31.689Z,94.96
2022-12-20T21:51:33.999Z,94.89
2022-12-20T21:56:37.574Z,94.59
2022-12-20T22:01:39.506Z,94.12
2022-12-20T22:06:42.117Z,93.67
2022-12-20T22:11:46.928Z,94.09
2022-12-20T22:16:49.107Z,93.99
2022-12-20T22:21:57.639Z,93.64
2022-12-20T22:27:06.298Z,92.80
2022-12-20T22:32:13.890Z,93.14
2022-12-20T22:37:15.676Z,92.87
2022-12-20T22:42:19.084Z,93.44
2022-12-20T22:47:21.180Z,93.44
2022-12-20T22:52:23.037Z,94.32
2022-12-20T22:57:27.080Z,94.09
2022-12-20T23:02:29.337Z,94.14
2022-12-20T23:07:31.535Z,93.90
2022-12-20T23:12:35.917Z,94.63
2022-12-20T23:17:37.976Z,95.53
2022-12-20T23:22:40.115Z,96.02
2022-12-20T23:27:45.935Z,96.87
2022-12-20T23:32:48.486Z,97.91
2022-12-20T23:37:50.634Z,98.82
2022-12-20T23:42:54.240Z,100.00
2022-12-20T23:47:56.213Z,100.00
2022-12-20T23:52:58.571Z,100.00
2022-12-20T23:58:02.297Z,100.00
